Time;durP1;ratioP1;P1;durP2;ratioP2;P2;SDS_P1;SDS_P2;PMS_P1;PMS_P2;Temp;Humidity;BMP_temperature;BMP_pressure;BME280_temperature;BME280_humidity;BME280_pressure;Samples;Min_cycle;Max_cycle;Signal;HPM_P1;HPM_P2
2022/09/09 00:01:55;;;;;;;6.95;3.87;;;;;;;12.40;60.87;100720.83;1652771;85;21057;-72
2022/09/09 00:04:31;;;;;;;5.62;4.03;;;;;;;12.39;60.87;100719.14;1676091;85;21055;-73
2022/09/09 00:07:21;;;;;;;6.72;3.95;;;;;;;12.39;60.85;100719.14;1680599;85;21067;-72
2022/09/09 00:10:22;;;;;;;7.20;4.10;;;;;;;12.37;60.89;100726.38;1659006;85;21042;-72
2022/09/09 00:13:27;;;;;;;7.45;4.05;;;;;;;12.35;60.86;100723.48;1660679;85;22412;-73
2022/09/09 00:16:02;;;;;;;5.83;3.80;;;;;;;12.33;60.87;100732.88;1671517;83;20956;-73
2022/09/09 00:18:57;;;;;;;5.12;3.67;;;;;;;12.30;60.92;100741.08;1658578;84;21467;-73
2022/09/09 00:21:34;;;;;;;6.75;3.95;;;;;;;12.26;61.09;100733.88;1661226;85;21118;-75
2022/09/09 00:24:01;;;;;;;6.85;3.87;;;;;;;12.24;61.19;100743.73;1660548;85;21145;-73
2022/09/09 00:26:49;;;;;;;7.35;3.90;;;;;;;12.19;61.19;100742.43;1685643;83;22555;-72
2022/09/09 00:29:45;;;;;;;5.47;3.75;;;;;;;12.15;61.26;100735.20;1685961;84;21419;-73
2022/09/09 00:32:16;;;;;;;6.65;4.12;;;;;;;12.12;61.33;100730.64;1674306;83;21066;-72
2022/09/09 00:34:58;;;;;;;7.85;4.40;;;;;;;12.07;61.31;100727.05;1660145;85;21028;-73
2022/09/09 00:37:28;;;;;;;9.78;4.12;;;;;;;12.03;61.35;100722.47;1673835;83;21043;-73
2022/09/09 00:39:59;;;;;;;9.13;4.20;;;;;;;12.02;61.36;100718.62;1662486;83;22560;-72
2022/09/09 00:42:35;;;;;;;7.30;3.75;;;;;;;12.00;61.39;100720.07;1656610;85;21492;-72
2022/09/09 00:45:32;;;;;;;5.92;3.62;;;;;;;11.98;61.42;100722.48;1649190;86;21085;-73
2022/09/09 00:47:59;;;;;;;6.78;3.90;;;;;;;11.95;61.54;100730.66;1657581;85;21058;-73
2022/09/09 00:50:58;;;;;;;5.25;3.35;;;;;;;11.93;61.57;100734.75;1660292;86;21032;-72
2022/09/09 00:54:10;;;;;;;6.22;3.65;;;;;;;11.92;61.60;100734.39;1682947;82;22005;-72
2022/09/09 00:56:42;;;;;;;6.20;3.92;;;;;;;11.91;61.59;100732.71;1664426;85;21020;-72
2022/09/09 00:59:14;;;;;;;6.75;3.75;;;;;;;11.89;61.63;100732.48;1677732;85;21071;-72
2022/09/09 01:01:41;;;;;;;6.05;3.98;;;;;;;11.88;61.75;100732.13;1664805;85;21067;-72
2022/09/09 01:04:16;;;;;;;6.75;4.05;;;;;;;11.84;61.85;100735.47;1669766;85;21039;-72
2022/09/09 01:06:42;;;;;;;9.45;3.83;;;;;;;11.83;61.94;100742.22;1673348;84;23824;-73
2022/09/09 01:09:32;;;;;;;7.42;3.80;;;;;;;11.79;62.03;100742.92;1667257;85;21047;-73
2022/09/09 01:12:15;;;;;;;7.60;3.52;;;;;;;11.75;62.08;100737.48;1669642;85;21514;-72
2022/09/09 01:14:50;;;;;;;5.33;3.60;;;;;;;11.74;62.19;100743.27;1657781;84;21012;-73
2022/09/09 01:17:35;;;;;;;6.55;3.75;;;;;;;11.70;62.28;100746.28;1669868;84;21390;-72
2022/09/09 01:20:21;;;;;;;5.28;3.55;;;;;;;11.67;62.30;100748.66;1684084;83;21837;-73
2022/09/09 01:23:29;;;;;;;6.03;3.80;;;;;;;11.66;62.40;100750.11;1682289;84;20950;-73
2022/09/09 01:26:27;;;;;;;5.47;3.80;;;;;;;11.66;62.44;100751.44;1671573;84;21058;-71
2022/09/09 01:29:02;;;;;;;5.47;3.77;;;;;;;11.63;62.48;100746.39;1669390;84;21135;-71
2022/09/09 01:31:54;;;;;;;6.92;3.87;;;;;;;11.59;62.46;100738.34;1686885;83;36247;-71
2022/09/09 01:34:22;;;;;;;6.55;3.60;;;;;;;11.55;62.56;100744.81;1683720;83;21926;-72
2022/09/09 01:37:05;;;;;;;6.97;3.75;;;;;;;11.51;62.62;100746.88;1664336;85;20960;-72
2022/09/09 01:39:34;;;;;;;6.65;3.95;;;;;;;11.49;62.64;100750.61;1661091;83;21071;-73
2022/09/09 01:42:04;;;;;;;5.97;3.80;;;;;;;11.43;62.68;100756.71;1670049;85;21472;-73
2022/09/09 01:44:30;;;;;;;8.35;3.92;;;;;;;11.36;62.80;100762.59;1667461;85;21027;-72
2022/09/09 01:46:57;;;;;;;6.03;3.58;;;;;;;11.31;62.91;100760.79;1676951;83;23488;-72
2022/09/09 01:49:24;;;;;;;6.75;3.83;;;;;;;11.26;63.02;100770.38;1683907;83;20987;-72
2022/09/09 01:51:54;;;;;;;6.78;3.83;;;;;;;11.21;63.15;100769.05;1674929;83;21087;-71
2022/09/09 01:54:25;;;;;;;6.53;3.65;;;;;;;11.15;63.24;100769.03;1705730;82;21026;-72
2022/09/09 01:57:24;;;;;;;5.25;3.47;;;;;;;11.10;63.30;100769.88;1650687;84;21111;-72
2022/09/09 02:00:12;;;;;;;5.40;3.30;;;;;;;11.08;63.38;100767.80;1673963;85;21825;-73
2022/09/09 02:03:11;;;;;;;5.37;3.50;;;;;;;11.07;63.48;100771.41;1677661;85;21079;-72
2022/09/09 02:05:54;;;;;;;7.12;3.22;;;;;;;11.02;63.54;100763.83;1630128;86;21073;-73
2022/09/09 02:08:37;;;;;;;6.28;3.33;;;;;;;10.97;63.62;100765.13;1570652;89;21069;-73
2022/09/09 02:11:17;;;;;;;5.60;3.30;;;;;;;10.93;63.80;100767.64;1624530;86;21081;-72
2022/09/09 02:13:47;;;;;;;5.10;3.15;;;;;;;10.86;63.83;100768.56;1668860;83;21494;-72
2022/09/09 02:16:43;;;;;;;4.92;3.22;;;;;;;10.82;63.98;100759.20;1664076;85;21540;-72
2022/09/09 02:19:26;;;;;;;6.53;3.20;;;;;;;10.79;64.01;100768.17;1667529;85;21039;-73
2022/09/09 02:21:59;;;;;;;4.28;3.10;;;;;;;10.78;64.05;100763.00;1679681;83;20976;-71
2022/09/09 02:24:27;;;;;;;4.78;3.10;;;;;;;10.77;64.04;100759.52;1661546;85;21581;-72
2022/09/09 02:26:56;;;;;;;4.83;3.52;;;;;;;10.80;64.03;100758.44;1678166;84;21863;-72
2022/09/09 02:29:31;;;;;;;9.28;3.75;;;;;;;10.80;63.96;100759.28;1683251;82;21381;-73
2022/09/09 02:32:02;;;;;;;5.67;3.70;;;;;;;10.77;63.95;100758.20;1675619;83;21068;-72
2022/09/09 02:34:33;;;;;;;5.67;3.40;;;;;;;10.76;63.90;100758.31;1665041;85;21545;-72
2022/09/09 02:37:01;;;;;;;6.40;3.60;;;;;;;10.74;63.91;100750.51;1669292;83;21027;-72
2022/09/09 02:39:27;;;;;;;4.30;3.02;;;;;;;10.73;63.96;100751.95;1661566;83;21834;-73
2022/09/09 02:41:56;;;;;;;5.90;3.52;;;;;;;10.71;63.99;100750.75;1657339;85;20971;-72
2022/09/09 02:44:24;;;;;;;6.70;3.45;;;;;;;10.71;64.02;100744.14;1658598;83;21494;-72
2022/09/09 02:47:20;;;;;;;6.75;3.25;;;;;;;10.73;64.10;100750.62;1667256;85;21056;-73
2022/09/09 02:50:22;;;;;;;4.05;2.83;;;;;;;10.73;64.12;100751.47;1678561;83;20972;-73
2022/09/09 02:53:07;;;;;;;4.55;3.40;;;;;;;10.72;64.18;100748.46;1677945;85;21805;-73
2022/09/09 02:55:55;;;;;;;4.12;3.10;;;;;;;10.70;64.25;100746.87;1678417;84;21022;-72
2022/09/09 02:58:22;;;;;;;7.65;3.47;;;;;;;10.69;64.23;100759.23;1674453;85;21060;-72
2022/09/09 03:01:02;;;;;;;4.50;3.20;;;;;;;10.68;64.32;100759.35;1701095;83;20949;-72
2022/09/09 03:03:30;;;;;;;5.08;3.27;;;;;;;10.71;64.27;100756.48;1705934;83;21038;-74
2022/09/09 03:05:57;;;;;;;5.65;3.95;;;;;;;10.72;64.17;100766.95;1669913;83;22539;-74
2022/09/09 03:08:23;;;;;;;5.05;3.20;;;;;;;10.73;64.13;100769.13;1683715;85;21478;-72
2022/09/09 03:10:50;;;;;;;5.97;3.35;;;;;;;10.74;64.03;100775.61;1696312;84;20989;-73
2022/09/09 03:13:19;;;;;;;7.85;3.15;;;;;;;10.76;63.92;100780.77;1660539;85;21047;-72
2022/09/09 03:15:45;;;;;;;8.90;3.37;;;;;;;10.76;63.89;100781.61;1672456;85;20984;-72
2022/09/09 03:18:14;;;;;;;6.25;3.33;;;;;;;10.78;63.87;100777.53;1701309;84;22299;-72
2022/09/09 03:20:41;;;;;;;6.33;3.35;;;;;;;10.77;63.86;100782.45;1687632;83;21011;-73
2022/09/09 03:23:09;;;;;;;5.40;3.37;;;;;;;10.76;63.85;100787.38;1658499;84;21154;-72
2022/09/09 03:25:35;;;;;;;4.62;3.30;;;;;;;10.74;63.83;100793.27;1673590;85;21390;-72
2022/09/09 03:28:02;;;;;;;5.65;3.20;;;;;;;10.71;63.91;100795.66;1677170;83;21008;-72
2022/09/09 03:30:29;;;;;;;8.55;3.25;;;;;;;10.71;64.00;100793.02;1679653;84;22355;-73
2022/09/09 03:32:56;;;;;;;8.00;3.37;;;;;;;10.72;64.02;100796.50;1667463;83;20992;-74
2022/09/09 03:35:25;;;;;;;7.20;3.67;;;;;;;10.72;64.03;100793.37;1651762;84;21027;-72
2022/09/09 03:37:52;;;;;;;4.97;3.20;;;;;;;10.75;63.97;100802.39;1668186;83;21071;-72
2022/09/09 03:40:19;;;;;;;6.95;3.15;;;;;;;10.76;63.90;100808.03;1681651;85;21062;-73
2022/09/09 03:45:47;;;;;;;6.72;3.00;;;;;;;10.78;63.83;100812.73;1685945;83;21512;-73
2022/09/09 03:48:15;;;;;;;5.70;3.00;;;;;;;10.78;63.82;100808.77;1683194;83;20992;-72
2022/09/09 03:50:50;;;;;;;7.08;2.90;;;;;;;10.80;63.74;100808.16;1687421;84;21102;-71
2022/09/09 03:53:19;;;;;;;4.80;2.52;;;;;;;10.80;63.75;100803.36;1691721;84;21070;-71
2022/09/09 03:55:55;;;;;;;6.28;2.75;;;;;;;10.79;63.71;100805.16;1692866;84;22569;-73
2022/09/09 03:58:23;;;;;;;4.53;2.87;;;;;;;10.80;63.64;100804.20;1673691;84;21560;-72
2022/09/09 04:00:59;;;;;;;4.50;2.60;;;;;;;10.83;63.60;100810.60;1679205;84;21035;-73
2022/09/09 04:03:26;;;;;;;5.08;2.77;;;;;;;10.86;63.51;100820.94;1694456;84;21537;-72
2022/09/09 04:05:54;;;;;;;6.47;2.60;;;;;;;10.90;63.50;100812.30;1698479;84;21070;-72
2022/09/09 04:08:22;;;;;;;5.05;2.83;;;;;;;10.93;63.48;100816.05;1672319;85;21841;-73
2022/09/09 04:10:49;;;;;;;4.47;2.42;;;;;;;10.97;63.46;100820.14;1676098;84;21058;-74
2022/09/09 04:13:17;;;;;;;6.08;2.90;;;;;;;11.01;63.47;100810.20;1688226;84;20899;-75
2022/09/09 04:15:53;;;;;;;3.85;2.40;;;;;;;11.04;63.48;100808.65;1700548;83;21023;-74
2022/09/09 04:18:20;;;;;;;4.72;2.70;;;;;;;11.04;63.54;100805.52;1687123;84;21035;-74
2022/09/09 04:20:51;;;;;;;3.65;2.40;;;;;;;11.03;63.62;100805.16;1692947;83;24855;-73
2022/09/09 04:23:20;;;;;;;5.50;2.60;;;;;;;11.04;63.64;100808.65;1672584;84;21126;-78
2022/09/09 04:25:48;;;;;;;6.47;2.60;;;;;;;11.05;63.72;100811.17;1672565;84;20971;-77
2022/09/09 04:28:16;;;;;;;3.60;2.35;;;;;;;11.04;63.84;100809.97;1700280;83;21427;-79
2022/09/09 04:30:43;;;;;;;6.37;3.02;;;;;;;11.04;63.98;100803.36;1695077;83;21026;-77
2022/09/09 04:33:10;;;;;;;5.83;2.58;;;;;;;11.05;64.09;100809.85;1672404;84;22841;-77
2022/09/09 04:35:38;;;;;;;5.95;2.50;;;;;;;11.08;64.17;100820.67;1674113;84;21370;-76
2022/09/09 04:38:07;;;;;;;4.85;3.12;;;;;;;11.09;64.23;100820.55;1682009;83;21101;-78
2022/09/09 04:40:34;;;;;;;5.15;2.72;;;;;;;11.11;64.36;100817.81;1678013;83;20995;-76
2022/09/09 04:43:04;;;;;;;4.53;2.67;;;;;;;11.15;64.47;100820.10;1699593;84;21083;-75
2022/09/09 04:45:30;;;;;;;3.77;2.47;;;;;;;11.17;64.62;100820.83;1699968;83;21943;-73
2022/09/09 04:47:59;;;;;;;5.00;2.80;;;;;;;11.21;64.75;100828.55;1713357;83;21076;-75
2022/09/09 04:50:25;;;;;;;5.58;2.70;;;;;;;11.22;64.85;100824.46;1684271;83;21165;-74
2022/09/09 04:52:54;;;;;;;7.03;2.77;;;;;;;11.26;64.92;100832.52;1709879;83;21510;-74
2022/09/09 04:55:21;;;;;;;5.55;3.05;;;;;;;11.29;64.91;100834.95;1689585;84;21058;-72
2022/09/09 04:57:48;;;;;;;4.37;2.60;;;;;;;11.33;64.89;100831.11;1690130;83;21879;-73
2022/09/09 05:00:16;;;;;;;4.25;2.58;;;;;;;11.37;64.87;100839.64;1715413;83;20974;-71
2022/09/09 05:02:44;;;;;;;4.45;2.80;;;;;;;11.43;64.82;100842.67;1687578;83;21410;-73
2022/09/09 05:05:11;;;;;;;6.47;2.80;;;;;;;11.51;64.72;100838.14;1678552;83;21063;-74
2022/09/09 05:07:38;;;;;;;3.67;2.30;;;;;;;11.59;64.64;100844.17;1681814;84;20964;-73
2022/09/09 05:10:05;;;;;;;3.95;2.45;;;;;;;11.65;64.44;100844.53;1683354;84;22346;-73
2022/09/09 05:12:33;;;;;;;3.85;2.40;;;;;;;11.75;64.29;100839.38;1687729;83;21318;-73
2022/09/09 05:15:00;;;;;;;5.65;2.40;;;;;;;11.84;64.08;100840.50;1678522;83;21007;-73
2022/09/09 05:17:27;;;;;;;3.25;2.17;;;;;;;11.96;63.89;100839.55;1689743;83;21015;-72
2022/09/09 05:19:54;;;;;;;4.85;2.20;;;;;;;12.08;63.64;100839.09;1685520;83;20967;-71
2022/09/09 05:22:22;;;;;;;5.60;2.20;;;;;;;12.21;63.35;100845.10;1680226;83;21797;-72
2022/09/09 05:24:51;;;;;;;3.77;2.08;;;;;;;12.33;63.08;100842.80;1714666;81;20995;-71
2022/09/09 05:27:19;;;;;;;4.12;2.45;;;;;;;12.45;62.66;100843.63;1688115;83;21016;-71
2022/09/09 05:29:46;;;;;;;5.40;2.00;;;;;;;12.54;62.36;100846.38;1700784;83;21040;-72
2022/09/09 05:32:18;;;;;;;4.65;1.77;;;;;;;12.66;62.03;100855.18;1699458;83;20964;-71
2022/09/09 05:34:42;;;;;;;3.33;2.00;;;;;;;12.76;61.73;100851.30;1693374;84;21977;-72
2022/09/09 05:37:08;;;;;;;4.20;2.25;;;;;;;12.83;61.01;100842.70;1673507;84;21034;-72
2022/09/09 05:39:40;;;;;;;3.33;2.15;;;;;;;12.92;60.84;100848.23;1673337;84;21046;-71
2022/09/09 05:42:05;;;;;;;4.25;1.82;;;;;;;13.01;60.37;100857.60;1674737;84;21522;-72
2022/09/09 05:44:33;;;;;;;2.80;2.02;;;;;;;13.06;59.94;100861.22;1674105;84;21086;-72
2022/09/09 05:47:00;;;;;;;4.37;2.10;;;;;;;13.11;59.67;100855.03;1681160;84;22150;-71
2022/09/09 05:49:27;;;;;;;3.72;2.10;;;;;;;13.16;59.46;100848.88;1687073;83;20987;-70
2022/09/09 05:51:53;;;;;;;5.37;2.20;;;;;;;13.24;59.20;100846.96;1661003;84;21109;-72
2022/09/09 05:54:20;;;;;;;5.35;2.08;;;;;;;13.32;59.10;100855.13;1687086;84;21063;-72
2022/09/09 05:56:50;;;;;;;4.92;1.92;;;;;;;13.43;58.90;100857.72;1723316;82;21559;-72
2022/09/09 05:59:18;;;;;;;4.00;1.90;;;;;;;13.51;58.55;100850.42;1684536;84;21844;-71
2022/09/09 06:01:45;;;;;;;3.58;1.77;;;;;;;13.59;58.26;100854.12;1685675;83;21003;-73
2022/09/09 06:04:13;;;;;;;8.50;1.90;;;;;;;13.67;57.77;100861.44;1701045;81;20998;-74
2022/09/09 06:06:41;;;;;;;2.87;1.87;;;;;;;13.66;56.90;100853.97;1678117;84;21557;-73
2022/09/09 06:09:17;;;;;;;3.37;1.70;;;;;;;13.69;56.89;100856.84;1696296;82;20933;-74
2022/09/09 06:11:45;;;;;;;4.72;1.67;;;;;;;13.76;56.54;100855.35;1696234;83;22266;-74
2022/09/09 06:14:12;;;;;;;3.75;1.90;;;;;;;13.83;56.07;100853.02;1672315;84;21019;-74
2022/09/09 06:16:42;;;;;;;3.22;1.98;;;;;;;13.89;55.89;100849.34;1677166;84;21043;-75
2022/09/09 06:19:12;;;;;;;5.00;1.62;;;;;;;13.92;55.00;100843.78;1705526;83;21054;-78
2022/09/09 06:21:40;;;;;;;3.87;1.75;;;;;;;14.00;55.07;100843.13;1679699;84;21034;-77
2022/09/09 06:24:08;;;;;;;7.72;1.60;;;;;;;14.08;54.59;100845.09;1680966;83;21938;-78
2022/09/09 06:26:45;;;;;;;5.92;1.62;;;;;;;14.14;54.71;100837.94;1699948;83;21011;-73
2022/09/09 06:29:09;;;;;;;3.37;1.60;;;;;;;14.25;54.60;100854.62;1686046;82;21042;-73
2022/09/09 06:31:36;;;;;;;5.37;1.42;;;;;;;14.38;54.30;100862.38;1685152;83;21121;-73
2022/09/09 06:34:09;;;;;;;2.95;1.50;;;;;;;14.51;54.22;100862.17;1707618;83;20981;-72
2022/09/09 06:36:38;;;;;;;1.98;1.52;;;;;;;14.66;53.49;100854.14;1712547;83;22477;-71
2022/09/09 06:39:06;;;;;;;2.17;1.30;;;;;;;14.79;53.01;100841.45;1687570;83;21094;-72
2022/09/09 06:41:33;;;;;;;2.83;1.50;;;;;;;14.85;52.67;100852.86;1692588;84;21019;-71
2022/09/09 06:44:01;;;;;;;4.42;1.47;;;;;;;14.89;52.21;100858.27;1692973;84;21078;-71
2022/09/09 06:46:32;;;;;;;2.42;1.40;;;;;;;14.94;51.78;100870.30;1710321;83;21494;-71
2022/09/09 06:49:00;;;;;;;2.75;1.32;;;;;;;14.98;51.64;100872.56;1693146;84;22470;-72
2022/09/09 06:51:31;;;;;;;5.72;1.72;;;;;;;15.05;51.89;100877.66;1697263;83;21671;-72
2022/09/09 06:53:59;;;;;;;3.65;1.40;;;;;;;15.16;51.77;100878.05;1693916;83;21035;-72
2022/09/09 06:56:40;;;;;;;7.30;1.42;;;;;;;15.30;51.53;100874.95;1683924;84;20960;-73
2022/09/09 06:59:08;;;;;;;2.25;1.50;;;;;;;15.41;51.50;100882.80;1671047;83;21134;-72
2022/09/09 07:01:44;;;;;;;4.85;1.62;;;;;;;15.58;51.43;100881.75;1687002;84;21973;-72
2022/09/09 07:04:13;;;;;;;4.08;1.50;;;;;;;15.70;50.86;100877.97;1672002;84;21042;-73
2022/09/09 07:06:46;;;;;;;4.25;1.60;;;;;;;15.83;50.66;100877.20;1671220;84;21493;-73
2022/09/09 07:09:16;;;;;;;4.78;1.55;;;;;;;15.93;49.81;100875.34;1690293;84;20983;-74
2022/09/09 07:11:47;;;;;;;3.08;1.55;;;;;;;16.01;49.82;100869.27;1725089;83;21528;-71
2022/09/09 07:14:15;;;;;;;2.33;1.60;;;;;;;16.11;48.89;100860.75;1721530;83;21965;-71
2022/09/09 07:16:44;;;;;;;3.70;1.60;;;;;;;16.10;48.23;100865.73;1720411;81;20990;-71
2022/09/09 07:19:14;;;;;;;5.45;1.60;;;;;;;16.08;48.25;100869.55;1690296;84;21042;-70
2022/09/09 07:21:41;;;;;;;3.40;1.98;;;;;;;16.06;47.69;100874.19;1671470;84;21027;-68
2022/09/09 07:24:10;;;;;;;3.70;2.00;;;;;;;15.97;48.00;100868.73;1678924;84;21067;-71
2022/09/09 07:26:39;;;;;;;5.67;2.15;;;;;;;16.01;48.22;100875.44;1679001;84;22012;-72
2022/09/09 07:29:06;;;;;;;3.62;1.92;;;;;;;16.10;48.47;100868.90;1680400;84;21082;-74
2022/09/09 07:31:36;;;;;;;4.85;1.90;;;;;;;16.19;47.88;100859.53;1694877;84;21458;-72
2022/09/09 07:34:04;;;;;;;4.03;1.70;;;;;;;16.26;47.57;100869.97;1702491;83;21376;-74
2022/09/09 07:36:37;;;;;;;2.72;1.40;;;;;;;16.33;47.77;100873.39;1710004;83;20997;-75
2022/09/09 07:39:09;;;;;;;5.12;1.70;;;;;;;16.40;47.27;100868.63;1679059;83;23039;-70
2022/09/09 07:41:40;;;;;;;3.42;1.67;;;;;;;16.45;47.22;100867.71;1679084;83;21015;-73
2022/09/09 07:44:11;;;;;;;4.00;1.20;;;;;;;16.58;47.61;100868.69;1683597;83;21031;-74
2022/09/09 07:46:39;;;;;;;3.47;1.20;;;;;;;16.74;47.28;100862.75;1675116;84;21120;-72
2022/09/09 07:49:07;;;;;;;2.62;1.27;;;;;;;16.90;46.74;100854.94;1681481;83;21393;-70
2022/09/09 07:51:37;;;;;;;3.67;1.30;;;;;;;16.94;45.97;100855.46;1674341;84;21938;-71
2022/09/09 07:54:07;;;;;;;3.75;1.10;;;;;;;16.98;45.68;100860.33;1689908;83;20963;-71
2022/09/09 07:56:35;;;;;;;3.05;1.02;;;;;;;17.00;45.78;100858.38;1679839;84;21022;-71
2022/09/09 07:59:06;;;;;;;4.50;1.30;;;;;;;17.02;45.55;100852.38;1678919;84;22449;-70
2022/09/09 08:01:38;;;;;;;3.72;1.02;;;;;;;17.06;45.88;100853.74;1682302;84;21412;-73
2022/09/09 08:04:08;;;;;;;1.85;1.10;;;;;;;17.14;44.87;100861.00;1675027;83;22044;-73
2022/09/09 08:06:39;;;;;;;2.60;1.00;;;;;;;17.19;44.35;100872.56;1690492;83;21049;-73
2022/09/09 08:09:07;;;;;;;1.52;1.10;;;;;;;17.28;44.22;100862.31;1697649;83;21359;-73
2022/09/09 08:11:35;;;;;;;4.80;1.20;;;;;;;17.33;43.72;100860.00;1720407;83;21373;-73
2022/09/09 08:14:03;;;;;;;3.72;1.20;;;;;;;17.37;44.28;100856.02;1698940;83;21015;-73
2022/09/09 08:16:36;;;;;;;2.70;1.00;;;;;;;17.50;44.37;100855.64;1698550;83;21829;-74
2022/09/09 08:19:03;;;;;;;5.20;1.20;;;;;;;17.61;43.15;100851.38;1679772;84;20978;-73
2022/09/09 08:21:33;;;;;;;6.50;1.10;;;;;;;17.65;43.16;100860.75;1694773;83;21110;-70
2022/09/09 08:24:01;;;;;;;2.47;0.90;;;;;;;17.68;43.21;100861.30;1682656;84;21518;-72
2022/09/09 08:26:34;;;;;;;2.58;1.10;;;;;;;17.77;43.42;100865.41;1683348;83;20960;-71
2022/09/09 08:29:04;;;;;;;1.72;1.10;;;;;;;17.92;43.65;100861.14;1683074;84;21856;-71
2022/09/09 08:31:46;;;;;;;2.35;0.93;;;;;;;18.02;42.78;100864.05;1696295;83;21008;-72
2022/09/09 08:34:19;;;;;;;2.37;1.10;;;;;;;17.99;41.97;100868.88;1665212;83;21093;-74
2022/09/09 08:36:47;;;;;;;2.22;1.10;;;;;;;17.88;42.76;100869.98;1737043;81;20939;-72
2022/09/09 08:39:17;;;;;;;4.67;1.17;;;;;;;17.93;42.77;100858.30;1748820;80;21364;-72
2022/09/09 08:42:06;;;;;;;3.05;1.30;;;;;;;18.05;42.87;100858.91;1702256;83;23008;-73
2022/09/09 08:44:57;;;;;;;3.60;1.10;;;;;;;18.26;43.34;100856.67;1713845;80;20938;-70
2022/09/09 08:48:09;;;;;;;2.08;0.98;;;;;;;18.48;41.75;100854.41;1697367;83;20940;-70
2022/09/09 08:50:43;;;;;;;5.15;1.50;;;;;;;18.59;40.91;100854.12;1686260;83;20987;-70
2022/09/09 08:53:22;;;;;;;3.10;1.27;;;;;;;18.60;40.62;100855.79;1709509;81;21065;-71
2022/09/09 08:56:03;;;;;;;2.58;1.02;;;;;;;18.57;41.17;100860.14;1660431;85;21911;-72
2022/09/09 08:58:50;;;;;;;1.20;1.00;;;;;;;18.66;41.10;100865.89;1689214;84;20872;-71
2022/09/09 09:02:05;;;;;;;2.67;1.12;;;;;;;18.74;40.69;100861.91;1699970;84;21031;-71
2022/09/09 09:05:09;;;;;;;2.02;0.90;;;;;;;18.84;40.27;100864.44;1673684;85;21023;-71
2022/09/09 09:08:12;;;;;;;2.10;1.15;;;;;;;18.95;40.08;100857.44;1675758;85;21121;-71
2022/09/09 09:10:49;;;;;;;2.70;1.17;;;;;;;19.00;39.75;100848.89;1670741;85;21855;-71
2022/09/09 09:13:28;;;;;;;3.33;1.10;;;;;;;18.93;40.15;100847.91;1670180;83;20991;-72
2022/09/09 09:16:02;;;;;;;2.10;1.20;;;;;;;18.91;40.20;100856.57;1687965;84;21403;-73
2022/09/09 09:18:29;;;;;;;1.40;0.85;;;;;;;18.94;40.08;100841.55;1677440;83;21187;-71
2022/09/09 09:21:11;;;;;;;1.47;1.00;;;;;;;18.94;40.25;100845.05;1684971;83;21114;-72
2022/09/09 09:23:48;;;;;;;2.70;0.90;;;;;;;19.01;39.56;100836.70;1660892;85;21487;-74
2022/09/09 09:26:15;;;;;;;2.60;1.10;;;;;;;19.04;39.49;100844.41;1681447;83;20827;-73
2022/09/09 09:28:42;;;;;;;2.83;0.93;;;;;;;19.15;40.50;100851.27;1660331;86;21027;-71
2022/09/09 09:31:11;;;;;;;4.60;1.30;;;;;;;19.22;39.26;100852.80;1679029;83;21034;-72
2022/09/09 09:33:55;;;;;;;2.67;1.15;;;;;;;19.20;39.70;100852.09;1679317;84;20942;-72
2022/09/09 09:36:37;;;;;;;2.65;0.90;;;;;;;19.30;39.92;100853.64;1674109;85;21840;-73
2022/09/09 09:39:05;;;;;;;6.90;0.90;;;;;;;19.50;39.74;100850.63;1662931;85;20976;-73
2022/09/09 09:41:41;;;;;;;4.10;1.02;;;;;;;19.62;38.90;100846.13;1677787;85;21031;-74
2022/09/09 09:44:25;;;;;;;2.08;1.00;;;;;;;19.72;39.15;100843.27;1638696;85;21087;-72
2022/09/09 09:46:53;;;;;;;2.20;1.10;;;;;;;19.89;38.61;100853.46;1685000;83;21072;-72
2022/09/09 09:49:20;;;;;;;2.08;0.90;;;;;;;20.00;37.67;100847.73;1679983;84;21798;-71
2022/09/09 09:51:46;;;;;;;3.35;0.90;;;;;;;20.07;37.42;100843.33;1678626;84;20938;-70
2022/09/09 09:54:33;;;;;;;4.42;1.12;;;;;;;20.11;37.15;100837.14;1668786;84;21012;-71
2022/09/09 09:57:12;;;;;;;1.72;1.20;;;;;;;20.12;37.32;100830.26;1673278;84;21069;-73
2022/09/09 09:59:39;;;;;;;6.33;1.10;;;;;;;20.22;37.35;100835.42;1673355;84;21085;-70
2022/09/09 10:02:16;;;;;;;3.83;1.17;;;;;;;20.38;37.56;100835.38;1696843;83;21412;-72
2022/09/09 10:04:47;;;;;;;7.95;1.10;;;;;;;20.66;36.87;100838.96;1674248;84;21074;-73
2022/09/09 10:07:22;;;;;;;4.28;0.93;;;;;;;20.94;37.42;100844.17;1679344;84;21071;-70
2022/09/09 10:09:55;;;;;;;3.35;1.10;;;;;;;21.25;36.58;100843.27;1680530;84;20991;-69
2022/09/09 10:12:58;;;;;;;2.40;0.93;;;;;;;21.50;35.32;100841.23;1692443;84;21026;-71
2022/09/09 10:16:00;;;;;;;2.90;0.90;;;;;;;21.50;34.96;100838.03;1684337;83;21853;-71
2022/09/09 10:19:03;;;;;;;2.47;1.05;;;;;;;21.46;34.95;100839.94;1677508;84;21049;-71
2022/09/09 10:21:38;;;;;;;4.53;1.20;;;;;;;21.48;34.76;100849.99;1682487;84;21066;-71
2022/09/09 10:24:44;;;;;;;2.08;1.20;;;;;;;21.38;34.83;100848.89;1673526;84;21058;-70
2022/09/09 10:27:16;;;;;;;2.70;1.20;;;;;;;21.50;35.50;100838.03;1678337;84;21038;-70
2022/09/09 10:30:14;;;;;;;2.27;1.10;;;;;;;21.56;34.29;100842.70;1695928;84;21930;-69
2022/09/09 10:33:18;;;;;;;2.72;1.02;;;;;;;21.44;35.47;100852.22;1645217;85;21084;-70
2022/09/09 10:35:52;;;;;;;;;;;;;;;21.55;34.42;100845.06;1691443;83;20989;-69
2022/09/09 10:38:41;;;;;;;2.35;1.00;;;;;;;21.54;34.29;100838.02;1683909;82;20456;-71
2022/09/09 10:41:19;;;;;;;2.20;1.20;;;;;;;21.51;34.22;100838.36;1700082;83;20970;-69
2022/09/09 10:44:04;;;;;;;3.50;1.20;;;;;;;21.44;33.60;100834.75;1671985;84;21781;-69
2022/09/09 10:47:09;;;;;;;1.80;1.32;;;;;;;21.17;33.76;100837.45;1680359;84;21003;-71
2022/09/09 10:50:01;;;;;;;4.22;1.30;;;;;;;20.99;34.27;100840.42;1673428;84;21003;-70
2022/09/09 10:52:36;;;;;;;1.50;1.10;;;;;;;20.94;34.00;100836.59;1681160;84;20995;-71
2022/09/09 10:55:18;;;;;;;4.45;1.20;;;;;;;20.94;34.49;100833.91;1695130;83;21012;-72
2022/09/09 10:57:52;;;;;;;3.62;1.30;;;;;;;21.04;34.57;100825.97;1684629;84;21847;-71
2022/09/09 11:00:39;;;;;;;3.02;1.40;;;;;;;21.23;35.25;100827.81;1697962;84;20936;-72
2022/09/09 11:03:07;;;;;;;4.42;1.35;;;;;;;21.56;35.21;100831.11;1717346;81;20996;-72
2022/09/09 11:05:46;;;;;;;4.05;1.30;;;;;;;21.93;34.39;100832.41;1707355;81;21093;-72
2022/09/09 11:08:19;;;;;;;2.62;1.50;;;;;;;22.08;34.06;100827.57;1690863;84;21006;-72
2022/09/09 11:11:31;;;;;;;2.50;1.15;;;;;;;22.15;33.63;100823.95;1689073;82;23006;-71
2022/09/09 11:14:14;;;;;;;11.95;8.43;;;;;;;22.14;33.75;100824.98;1693852;83;20988;-73
2022/09/09 11:17:02;;;;;;;;;;;;;;;22.18;34.02;100828.12;1676662;83;21065;-72
2022/09/09 11:19:45;;;;;;;3.05;1.10;;;;;;;22.13;33.55;100837.28;1673844;84;20390;-72
2022/09/09 11:22:46;;;;;;;2.85;1.30;;;;;;;22.02;33.68;100829.64;1675560;83;21074;-70
2022/09/09 11:25:23;;;;;;;2.22;1.30;;;;;;;22.02;33.47;100818.38;1672830;84;21900;-69
2022/09/09 11:28:09;;;;;;;2.10;1.12;;;;;;;21.99;33.21;100818.20;1680686;83;21039;-69
2022/09/09 11:30:56;;;;;;;2.87;1.30;;;;;;;21.82;33.86;100811.88;1672729;84;21062;-69
2022/09/09 11:33:53;;;;;;;3.15;1.20;;;;;;;21.59;34.67;100808.72;1687207;84;21071;-68
2022/09/09 11:36:35;;;;;;;3.08;1.30;;;;;;;21.61;34.85;100808.53;1672763;84;21072;-70
2022/09/09 11:39:19;;;;;;;4.50;1.20;;;;;;;21.47;35.38;100816.91;1673516;84;21834;-69
2022/09/09 11:41:45;;;;;;;;;;;;;;;21.51;35.13;100803.93;1675981;84;20963;-70
2022/09/09 11:44:13;;;;;;;3.30;1.30;;;;;;;21.68;35.27;100804.94;1675472;84;20173;-70
2022/09/09 11:46:41;;;;;;;1.57;1.10;;;;;;;21.85;35.36;100806.12;1675469;84;21520;-70
2022/09/09 11:49:28;;;;;;;2.80;1.40;;;;;;;22.03;35.39;100807.94;1700749;83;20995;-70
2022/09/09 11:51:55;;;;;;;3.90;1.27;;;;;;;22.06;35.42;100804.03;1700971;83;21863;-70
2022/09/09 11:54:34;;;;;;;2.65;1.40;;;;;;;22.08;35.10;100801.50;1700925;83;21506;-70
2022/09/09 11:57:02;;;;;;;3.10;1.50;;;;;;;22.02;34.83;100810.30;1699544;83;21015;-70
2022/09/09 11:59:31;;;;;;;2.62;1.12;;;;;;;21.74;35.07;100808.75;1673623;84;20996;-69
2022/09/09 12:02:26;;;;;;;5.28;1.27;;;;;;;21.60;35.22;100805.02;1688989;83;21516;-70
2022/09/09 12:05:08;;;;;;;4.55;1.20;;;;;;;21.64;35.75;100810.37;1690776;84;21887;-69
2022/09/09 12:07:58;;;;;;;2.47;1.50;;;;;;;21.73;35.37;100812.47;1673802;84;20972;-70